createdAt,value
2023-01-06T00:01:22.802Z,0.22
2023-01-06T00:04:25.940Z,0.55
2023-01-06T00:07:29.224Z,0.40
2023-01-06T00:10:32.485Z,0.30
2023-01-06T00:13:35.846Z,0.40
2023-01-06T00:16:39.024Z,0.30
2023-01-06T00:19:42.304Z,0.32
2023-01-06T00:22:45.498Z,0.40
2023-01-06T00:25:52.298Z,0.50
2023-01-06T00:28:56.729Z,0.50
2023-01-06T00:32:03.102Z,0.30
2023-01-06T00:35:06.619Z,0.50
2023-01-06T00:38:10.276Z,0.30
2023-01-06T00:41:36.266Z,0.35
2023-01-06T00:44:40.544Z,0.50
2023-01-06T00:47:43.711Z,0.30
2023-01-06T00:50:46.951Z,0.30
2023-01-06T00:53:51.413Z,0.30
2023-01-06T00:56:55.712Z,0.30
2023-01-06T00:59:58.924Z,0.30
2023-01-06T01:03:02.605Z,0.32
2023-01-06T01:06:08.308Z,0.20
2023-01-06T01:09:15.733Z,0.20
2023-01-06T01:12:18.946Z,0.30
2023-01-06T01:15:22.547Z,0.50
2023-01-06T01:18:26.149Z,0.20
2023-01-06T01:21:29.548Z,0.40
2023-01-06T01:24:33.369Z,0.30
2023-01-06T01:27:36.661Z,0.30
2023-01-06T01:30:39.973Z,0.40
2023-01-06T01:33:43.669Z,0.30
2023-01-06T01:36:49.885Z,0.40
2023-01-06T01:39:53.587Z,0.38
2023-01-06T01:42:59.695Z,0.30
2023-01-06T01:46:02.969Z,0.30
2023-01-06T01:49:15.370Z,0.20
2023-01-06T01:52:20.171Z,0.20
2023-01-06T01:55:25.034Z,0.30
2023-01-06T01:58:34.475Z,0.22
2023-01-06T02:01:37.936Z,0.40
2023-01-06T02:04:44.696Z,0.40
2023-01-06T02:07:48.915Z,0.38
2023-01-06T02:10:53.069Z,0.40
2023-01-06T02:14:08.150Z,0.30
2023-01-06T02:17:35.911Z,0.40
2023-01-06T02:20:46.977Z,0.47
2023-01-06T02:24:08.050Z,0.35
2023-01-06T02:27:34.222Z,0.20
2023-01-06T02:31:03.951Z,0.35
2023-01-06T02:34:29.236Z,0.50
2023-01-06T02:37:53.613Z,0.30
2023-01-06T02:41:00.357Z,0.50
2023-01-06T02:44:11.233Z,0.30
2023-01-06T02:47:51.026Z,0.30
2023-01-06T02:51:10.947Z,0.50
2023-01-06T02:54:46.262Z,0.40
2023-01-06T02:58:02.154Z,0.40
2023-01-06T03:01:29.525Z,0.20
2023-01-06T03:04:39.873Z,0.60
2023-01-06T03:07:47.634Z,0.30
2023-01-06T03:10:52.251Z,0.43
2023-01-06T03:14:18.005Z,0.35
2023-01-06T03:17:21.442Z,0.40
2023-01-06T03:20:25.252Z,0.40
2023-01-06T03:23:29.050Z,0.57
2023-01-06T03:26:33.118Z,0.45
2023-01-06T03:29:38.190Z,0.38
2023-01-06T03:33:02.791Z,0.50
2023-01-06T03:36:33.755Z,0.40
2023-01-06T03:39:58.231Z,0.50
2023-01-06T03:43:24.738Z,0.35
2023-01-06T03:46:44.732Z,0.40
2023-01-06T03:50:03.448Z,0.52
2023-01-06T03:53:19.112Z,0.50
2023-01-06T03:56:36.734Z,0.38
2023-01-06T03:59:50.646Z,0.30
2023-01-06T04:02:54.992Z,0.50
2023-01-06T04:06:00.972Z,0.40
2023-01-06T04:09:04.968Z,0.53
2023-01-06T04:12:29.972Z,0.50
2023-01-06T04:15:33.243Z,0.40
2023-01-06T04:18:41.014Z,0.85
2023-01-06T04:21:44.354Z,0.60
2023-01-06T04:24:47.622Z,0.93
2023-01-06T04:27:51.725Z,0.40
2023-01-06T04:30:59.065Z,0.50
2023-01-06T04:34:02.939Z,0.73
2023-01-06T04:37:06.650Z,0.50
2023-01-06T04:40:10.494Z,0.60
2023-01-06T04:43:16.292Z,0.50
2023-01-06T04:46:19.475Z,0.30
2023-01-06T04:49:23.278Z,0.50
2023-01-06T04:52:26.499Z,0.50
2023-01-06T04:55:29.843Z,0.50
2023-01-06T04:58:33.126Z,0.60
2023-01-06T05:01:36.795Z,0.50
2023-01-06T05:04:47.500Z,0.45
2023-01-06T05:07:54.903Z,0.43
2023-01-06T05:11:09.528Z,0.50
2023-01-06T05:14:12.818Z,0.77
2023-01-06T05:17:16.090Z,0.80
2023-01-06T05:20:19.371Z,0.80
2023-01-06T05:23:22.583Z,0.80
2023-01-06T05:26:27.739Z,0.70
2023-01-06T05:29:31.170Z,0.60
2023-01-06T05:32:34.438Z,0.60
2023-01-06T05:35:37.868Z,0.60
2023-01-06T05:38:41.685Z,0.70
2023-01-06T05:41:44.879Z,0.50
2023-01-06T05:44:48.051Z,0.60
2023-01-06T05:47:51.955Z,0.70
2023-01-06T05:51:11.701Z,0.77
2023-01-06T05:54:15.151Z,1.37
2023-01-06T05:57:18.311Z,0.70
2023-01-06T06:00:21.761Z,0.70
2023-01-06T06:03:25.029Z,0.70
2023-01-06T06:06:29.646Z,0.70
2023-01-06T06:09:32.895Z,0.70
2023-01-06T06:12:36.826Z,0.93
2023-01-06T06:15:39.996Z,0.75
2023-01-06T06:18:44.395Z,1.00
2023-01-06T06:21:47.825Z,0.90
2023-01-06T06:24:51.181Z,1.33
2023-01-06T06:27:58.769Z,1.38
2023-01-06T06:31:07.887Z,1.15
2023-01-06T06:34:13.140Z,1.10
2023-01-06T06:37:16.432Z,0.90
2023-01-06T06:40:19.673Z,0.68
2023-01-06T06:43:22.956Z,0.80
2023-01-06T06:46:26.148Z,0.70
2023-01-06T06:49:29.551Z,0.98
2023-01-06T06:52:32.819Z,0.82
2023-01-06T06:55:36.208Z,0.73
2023-01-06T06:58:40.232Z,0.70
2023-01-06T07:01:43.764Z,0.75
2023-01-06T07:04:47.346Z,1.00
2023-01-06T07:07:50.526Z,1.88
2023-01-06T07:10:54.153Z,0.80
2023-01-06T07:13:57.466Z,0.70
2023-01-06T07:17:02.153Z,0.70
2023-01-06T07:20:05.989Z,0.90
2023-01-06T07:23:09.324Z,0.93
2023-01-06T07:26:12.451Z,0.85
2023-01-06T07:29:15.773Z,1.15
2023-01-06T07:32:19.202Z,3.13
2023-01-06T07:35:22.503Z,2.17
2023-01-06T07:38:26.271Z,1.17
2023-01-06T07:41:30.911Z,0.80
2023-01-06T07:44:44.639Z,0.60
2023-01-06T07:47:48.822Z,0.90
2023-01-06T07:50:52.405Z,0.60
2023-01-06T07:53:55.862Z,0.70
2023-01-06T07:56:59.170Z,0.73
2023-01-06T08:00:02.598Z,0.57
2023-01-06T08:03:15.179Z,0.75
2023-01-06T08:06:18.449Z,0.90
2023-01-06T08:09:21.802Z,1.52
2023-01-06T08:12:25.008Z,0.70
2023-01-06T08:15:28.218Z,0.50
2023-01-06T08:18:31.521Z,0.50
2023-01-06T08:21:34.798Z,0.60
2023-01-06T08:24:40.431Z,1.30
2023-01-06T08:27:43.615Z,0.63
2023-01-06T08:30:49.568Z,0.50
2023-01-06T08:33:53.678Z,0.70
2023-01-06T08:36:56.892Z,0.60
2023-01-06T08:40:00.085Z,0.52
2023-01-06T08:43:03.419Z,1.15
2023-01-06T08:46:09.621Z,1.53
2023-01-06T08:49:13.212Z,0.70
2023-01-06T08:52:16.531Z,0.70
2023-01-06T08:55:19.712Z,0.70
2023-01-06T08:58:22.961Z,0.68
2023-01-06T09:01:32.252Z,0.50
2023-01-06T09:04:36.028Z,1.00
2023-01-06T09:07:39.335Z,0.60
2023-01-06T09:10:42.587Z,0.63
2023-01-06T09:13:46.847Z,0.65
2023-01-06T09:16:50.062Z,0.30
2023-01-06T09:19:53.304Z,0.40
2023-01-06T09:22:56.671Z,0.73
2023-01-06T09:25:59.915Z,0.60
2023-01-06T09:29:03.258Z,0.40
2023-01-06T09:32:06.629Z,0.40
2023-01-06T09:35:10.140Z,0.40
2023-01-06T09:38:14.631Z,0.50
2023-01-06T09:41:37.689Z,0.52
2023-01-06T09:45:01.158Z,0.60
2023-01-06T09:48:06.696Z,0.57
2023-01-06T09:51:16.898Z,0.60
2023-01-06T09:54:33.119Z,0.40
2023-01-06T09:57:45.799Z,0.47
2023-01-06T10:00:52.821Z,0.43
2023-01-06T10:03:57.518Z,0.27
2023-01-06T10:07:09.323Z,0.50
2023-01-06T10:10:31.067Z,0.50
2023-01-06T10:13:40.121Z,0.30
2023-01-06T10:17:00.256Z,0.40
2023-01-06T10:20:37.270Z,0.40
2023-01-06T10:24:18.395Z,0.30
2023-01-06T10:27:21.900Z,0.40
2023-01-06T10:30:43.782Z,0.30
2023-01-06T10:33:53.565Z,0.40
2023-01-06T10:37:17.632Z,0.33
2023-01-06T10:40:22.927Z,0.40
2023-01-06T10:43:26.252Z,0.50
2023-01-06T10:46:36.453Z,0.30
2023-01-06T10:49:39.894Z,0.50
2023-01-06T10:52:44.288Z,0.70
2023-01-06T10:55:47.549Z,0.60
2023-01-06T10:58:58.054Z,0.50
2023-01-06T11:02:02.242Z,0.32
2023-01-06T11:05:05.728Z,0.30
2023-01-06T11:08:15.918Z,0.30
2023-01-06T11:11:28.964Z,0.30
2023-01-06T11:14:33.748Z,0.30
2023-01-06T11:17:38.319Z,0.30
2023-01-06T11:20:41.627Z,0.20
2023-01-06T11:23:47.227Z,0.30
2023-01-06T11:27:02.664Z,0.30
2023-01-06T11:30:53.264Z,0.30
2023-01-06T11:34:00.571Z,0.30
2023-01-06T11:37:04.355Z,0.50
2023-01-06T11:40:32.341Z,0.40
2023-01-06T11:43:35.680Z,0.52
2023-01-06T11:46:45.917Z,0.30
2023-01-06T11:49:55.726Z,0.50
2023-01-06T11:53:01.511Z,0.43
2023-01-06T11:56:07.341Z,0.57
2023-01-06T11:59:12.947Z,0.40
2023-01-06T12:02:30.646Z,0.40
2023-01-06T12:05:51.884Z,0.43
2023-01-06T12:09:23.806Z,0.30
2023-01-06T12:12:28.350Z,0.40
2023-01-06T12:15:34.258Z,0.50
2023-01-06T12:18:41.335Z,0.40
2023-01-06T12:21:44.563Z,0.98
2023-01-06T12:24:49.889Z,0.30
2023-01-06T12:27:58.964Z,0.50
2023-01-06T12:31:12.278Z,0.40
2023-01-06T12:34:29.773Z,0.30
2023-01-06T12:37:41.209Z,0.30
2023-01-06T12:40:58.371Z,0.30
2023-01-06T12:44:09.437Z,0.30
2023-01-06T12:47:39.651Z,0.45
2023-01-06T12:50:54.909Z,0.63
2023-01-06T12:54:24.354Z,0.40
2023-01-06T12:57:42.749Z,0.50
2023-01-06T13:01:01.619Z,0.63
2023-01-06T13:04:28.352Z,0.57
2023-01-06T13:07:48.296Z,0.45
2023-01-06T13:11:21.421Z,0.47
2023-01-06T13:15:00.626Z,0.73
2023-01-06T13:18:16.870Z,0.40
2023-01-06T13:21:24.575Z,0.50
2023-01-06T13:24:34.564Z,0.40
2023-01-06T13:27:40.644Z,0.50
2023-01-06T13:31:12.278Z,1.13
2023-01-06T13:34:27.760Z,0.60
2023-01-06T13:37:41.490Z,0.32
2023-01-06T13:40:46.574Z,0.50
2023-01-06T13:43:54.085Z,0.45
2023-01-06T13:47:07.819Z,0.63
2023-01-06T13:50:17.600Z,0.50
2023-01-06T13:53:23.256Z,0.40
2023-01-06T13:56:28.487Z,0.70
2023-01-06T13:59:47.596Z,0.60
2023-01-06T14:02:50.922Z,0.63
2023-01-06T14:05:55.483Z,1.20
2023-01-06T14:09:00.796Z,1.15
2023-01-06T14:12:16.380Z,1.15
2023-01-06T14:15:26.169Z,1.30
2023-01-06T14:18:45.687Z,0.90
2023-01-06T14:21:52.439Z,0.70
2023-01-06T14:25:02.883Z,0.90
2023-01-06T14:28:22.193Z,1.27
2023-01-06T14:31:31.583Z,2.00
2023-01-06T14:34:36.995Z,1.20
2023-01-06T14:37:53.354Z,0.90
2023-01-06T14:41:06.460Z,1.20
2023-01-06T14:44:36.772Z,0.90
2023-01-06T14:47:48.884Z,1.15
2023-01-06T14:50:56.544Z,1.08
2023-01-06T14:54:16.136Z,0.97
2023-01-06T14:57:35.654Z,1.00
2023-01-06T15:00:45.418Z,1.00
2023-01-06T15:03:56.613Z,0.98
2023-01-06T15:07:25.893Z,2.22
2023-01-06T15:10:33.032Z,1.50
2023-01-06T15:13:36.136Z,1.27
2023-01-06T15:16:41.371Z,1.70
2023-01-06T15:19:46.890Z,1.70
2023-01-06T15:22:51.179Z,1.50
2023-01-06T15:25:55.702Z,2.13
2023-01-06T15:29:05.908Z,1.80
2023-01-06T15:32:13.155Z,2.08
2023-01-06T15:35:26.491Z,2.00
2023-01-06T15:38:32.985Z,1.75
2023-01-06T15:41:37.619Z,1.27
2023-01-06T15:44:41.102Z,1.60
2023-01-06T15:47:49.242Z,1.60
2023-01-06T15:50:53.205Z,1.50
2023-01-06T15:53:58.704Z,1.90
2023-01-06T15:57:15.690Z,1.70
2023-01-06T16:00:23.365Z,2.25
2023-01-06T16:03:28.982Z,2.28
2023-01-06T16:06:37.131Z,3.10
2023-01-06T16:09:40.319Z,3.60
2023-01-06T16:12:43.595Z,3.47
2023-01-06T16:15:55.324Z,3.42
2023-01-06T16:18:58.614Z,3.72
2023-01-06T16:22:08.162Z,4.68
2023-01-06T16:25:28.490Z,4.38
2023-01-06T16:28:31.754Z,3.70
2023-01-06T16:31:36.745Z,3.97
2023-01-06T16:34:40.002Z,4.90
2023-01-06T16:37:44.126Z,6.35
2023-01-06T16:40:51.606Z,5.90
2023-01-06T16:43:54.737Z,5.90
2023-01-06T16:47:02.257Z,5.53
2023-01-06T16:50:36.818Z,5.32
2023-01-06T16:53:40.087Z,5.65
2023-01-06T16:56:43.500Z,4.20
2023-01-06T16:59:47.001Z,4.40
2023-01-06T17:02:51.530Z,4.95
2023-01-06T17:05:54.765Z,6.70
2023-01-06T17:09:02.059Z,5.90
2023-01-06T17:12:37.381Z,5.72
2023-01-06T17:15:41.097Z,5.40
2023-01-06T17:18:50.955Z,5.25
2023-01-06T17:22:14.065Z,5.15
2023-01-06T17:25:17.377Z,4.53
2023-01-06T17:28:22.183Z,4.32
2023-01-06T17:31:40.041Z,4.13
2023-01-06T17:34:43.326Z,4.00
2023-01-06T17:37:46.538Z,4.18
2023-01-06T17:40:51.358Z,3.85
2023-01-06T17:43:54.489Z,5.35
2023-01-06T17:46:58.176Z,5.10
2023-01-06T17:50:18.802Z,5.18
2023-01-06T17:53:54.497Z,5.38
2023-01-06T17:56:57.574Z,5.55
2023-01-06T18:00:02.944Z,5.75
2023-01-06T18:03:15.613Z,5.00
2023-01-06T18:06:30.580Z,5.82
2023-01-06T18:09:34.202Z,5.25
2023-01-06T18:12:37.364Z,5.03
2023-01-06T18:15:40.542Z,5.60
2023-01-06T18:18:43.687Z,5.23
2023-01-06T18:21:47.038Z,5.28
2023-01-06T18:24:57.773Z,5.53
2023-01-06T18:28:01.329Z,5.63
2023-01-06T18:31:14.245Z,6.10
2023-01-06T18:34:55.424Z,6.40
2023-01-06T18:38:03.490Z,6.60
2023-01-06T18:41:13.913Z,6.50
2023-01-06T18:44:20.283Z,5.70
2023-01-06T18:47:24.629Z,5.60
2023-01-06T18:50:38.390Z,5.93
2023-01-06T18:53:43.471Z,5.57
2023-01-06T18:56:46.859Z,5.90
2023-01-06T18:59:50.815Z,5.90
2023-01-06T19:03:02.858Z,6.45
2023-01-06T19:06:14.377Z,7.30
2023-01-06T19:09:32.830Z,7.60
2023-01-06T19:12:40.625Z,7.07
2023-01-06T19:15:44.557Z,7.32
2023-01-06T19:18:47.661Z,6.90
2023-01-06T19:21:52.218Z,6.53
2023-01-06T19:25:18.087Z,6.47
2023-01-06T19:28:31.304Z,6.65
2023-01-06T19:31:38.152Z,6.80
2023-01-06T19:34:41.479Z,6.60
2023-01-06T19:37:44.691Z,6.07
2023-01-06T19:40:47.970Z,6.10
2023-01-06T19:44:01.105Z,6.68
2023-01-06T19:47:27.760Z,6.70
2023-01-06T19:50:31.199Z,6.55
2023-01-06T19:53:43.520Z,6.40
2023-01-06T19:56:48.781Z,6.72
2023-01-06T19:59:53.224Z,7.05
2023-01-06T20:03:00.239Z,6.78
2023-01-06T20:06:04.381Z,6.97
2023-01-06T20:09:07.524Z,7.60
2023-01-06T20:12:12.283Z,6.95
2023-01-06T20:15:16.111Z,7.10
2023-01-06T20:18:20.640Z,7.15
2023-01-06T20:21:23.978Z,7.70
2023-01-06T20:24:27.302Z,7.63
2023-01-06T20:27:30.505Z,7.72
2023-01-06T20:30:33.874Z,8.20
2023-01-06T20:33:37.127Z,7.13
2023-01-06T20:36:41.009Z,7.53
2023-01-06T20:39:44.967Z,7.07
2023-01-06T20:42:48.490Z,7.82
2023-01-06T20:45:51.759Z,7.50
2023-01-06T20:48:54.991Z,7.50
2023-01-06T20:51:58.215Z,6.97
2023-01-06T20:55:01.938Z,7.18
2023-01-06T20:58:05.158Z,7.28
2023-01-06T21:01:08.409Z,6.47
2023-01-06T21:04:11.669Z,6.80
2023-01-06T21:07:14.936Z,6.78
2023-01-06T21:10:18.576Z,5.90
2023-01-06T21:13:23.913Z,6.50
2023-01-06T21:16:27.430Z,6.97
2023-01-06T21:19:31.219Z,7.87
2023-01-06T21:22:34.603Z,7.78
2023-01-06T21:25:37.753Z,8.35
2023-01-06T21:28:41.391Z,8.02
2023-01-06T21:31:44.579Z,8.27
2023-01-06T21:34:47.739Z,7.93
2023-01-06T21:37:50.977Z,8.07
2023-01-06T21:41:14.103Z,7.13
2023-01-06T21:44:17.242Z,7.25
2023-01-06T21:47:20.496Z,7.53
2023-01-06T21:50:26.719Z,7.72
2023-01-06T21:53:32.076Z,7.55
2023-01-06T21:56:36.130Z,7.32
2023-01-06T21:59:40.076Z,7.43
2023-01-06T22:02:45.405Z,7.80
2023-01-06T22:05:48.618Z,8.00
2023-01-06T22:08:53.346Z,8.93
2023-01-06T22:11:57.468Z,8.30
2023-01-06T22:15:00.925Z,8.37
2023-01-06T22:18:04.778Z,7.60
2023-01-06T22:21:08.060Z,8.23
2023-01-06T22:24:15.445Z,8.02
2023-01-06T22:27:18.702Z,8.87
2023-01-06T22:30:21.941Z,8.52
2023-01-06T22:33:25.285Z,9.38
2023-01-06T22:36:28.556Z,7.75
2023-01-06T22:39:31.906Z,8.73
2023-01-06T22:42:35.230Z,8.05
2023-01-06T22:45:38.528Z,7.90
2023-01-06T22:48:44.164Z,8.63
2023-01-06T22:51:48.694Z,8.00
2023-01-06T22:54:52.019Z,7.83
2023-01-06T22:57:55.183Z,7.90
2023-01-06T23:00:58.406Z,8.57
2023-01-06T23:04:03.273Z,7.80
2023-01-06T23:07:06.479Z,7.87
2023-01-06T23:10:11.311Z,7.95
2023-01-06T23:13:14.773Z,8.43
2023-01-06T23:16:19.772Z,8.52
2023-01-06T23:19:23.039Z,8.77
2023-01-06T23:22:26.316Z,8.30
2023-01-06T23:25:29.661Z,8.70
2023-01-06T23:28:33.837Z,8.73
2023-01-06T23:31:39.447Z,7.97
2023-01-06T23:34:42.614Z,8.03
2023-01-06T23:37:45.815Z,8.02
2023-01-06T23:40:49.120Z,8.55
2023-01-06T23:43:52.811Z,8.68
2023-01-06T23:46:56.089Z,8.23
2023-01-06T23:49:59.629Z,8.10
2023-01-06T23:53:02.858Z,8.80
2023-01-06T23:56:26.515Z,7.85
2023-01-06T23:59:29.814Z,8.40
